Time;durP1;ratioP1;P1;durP2;ratioP2;P2;SDS_P1;SDS_P2;PMS_P1;PMS_P2;Temp;Humidity;BMP_temperature;BMP_pressure;BME280_temperature;BME280_humidity;BME280_pressure;Samples;Min_cycle;Max_cycle;Signal;HPM_P1;HPM_P2
2021/07/14 00:00:56;;;;;;;0.13;0.13;;;18.10;99.90;;;;;;5051138;28;20262;-86
2021/07/14 00:03:22;;;;;;;0.20;0.20;;;18.10;99.90;;;;;;5037304;28;20209;-86
2021/07/14 00:05:48;;;;;;;0.30;0.30;;;18.10;99.90;;;;;;5034734;28;20197;-86
2021/07/14 00:08:13;;;;;;;0.17;0.17;;;18.10;99.90;;;;;;5054957;28;20185;-85
2021/07/14 00:10:39;;;;;;;0.30;0.30;;;18.10;99.90;;;;;;5051694;28;20255;-85
2021/07/14 00:13:23;;;;;;;0.33;0.33;;;18.00;99.90;;;;;;5037199;28;20251;-86
2021/07/14 00:24:05;;;;;;;0.30;0.30;;;18.00;99.90;;;;;;5054905;28;20280;-86
2021/07/14 00:26:31;;;;;;;0.30;0.30;;;18.10;99.90;;;;;;5036800;28;20209;-86
2021/07/14 00:29:01;;;;;;;0.30;0.30;;;18.00;99.90;;;;;;5036298;28;20260;-86
2021/07/14 00:31:26;;;;;;;0.10;0.10;;;18.00;99.90;;;;;;5036829;28;20182;-85
2021/07/14 00:33:52;;;;;;;0.20;0.20;;;17.90;99.90;;;;;;5035552;28;20255;-85
2021/07/14 00:36:18;;;;;;;0.30;0.30;;;17.90;99.90;;;;;;5054375;28;20197;-86
2021/07/14 00:38:44;;;;;;;0.67;0.30;;;18.00;99.90;;;;;;5052300;28;20199;-85
2021/07/14 00:41:10;;;;;;;0.30;0.30;;;18.10;99.90;;;;;;5036288;28;20216;-85
2021/07/14 00:43:36;;;;;;;0.60;0.60;;;18.20;99.90;;;;;;5036736;28;20630;-86
2021/07/14 00:46:18;;;;;;;0.20;0.20;;;18.30;99.90;;;;;;5036778;28;20205;-85
2021/07/14 00:48:45;;;;;;;0.40;0.40;;;18.30;99.90;;;;;;5035618;28;20195;-86
2021/07/14 00:51:11;;;;;;;0.20;0.20;;;18.30;99.90;;;;;;5034059;28;20189;-85
2021/07/14 00:53:36;;;;;;;0.20;0.20;;;18.40;99.90;;;;;;5036514;28;20559;-86
2021/07/14 00:56:03;;;;;;;0.30;0.30;;;18.40;99.90;;;;;;5030010;28;20267;-86
2021/07/14 00:58:31;;;;;;;0.20;0.20;;;18.50;99.90;;;;;;5036348;28;20189;-86
2021/07/14 01:00:57;;;;;;;0.40;0.40;;;18.50;99.90;;;;;;5053569;28;20204;-85
2021/07/14 01:03:27;;;;;;;0.17;0.17;;;18.50;99.90;;;;;;5036305;28;20561;-86
2021/07/14 01:05:54;;;;;;;0.30;0.30;;;18.50;99.90;;;;;;5054098;28;20664;-86
2021/07/14 01:08:31;;;;;;;0.50;0.50;;;18.50;99.90;;;;;;5053814;28;20181;-85
2021/07/14 01:11:11;;;;;;;0.30;0.30;;;18.50;99.90;;;;;;5047909;28;20184;-86
2021/07/14 01:14:21;;;;;;;0.30;0.30;;;18.50;99.90;;;;;;5042619;28;20188;-85
2021/07/14 01:16:54;;;;;;;0.20;0.20;;;18.50;99.90;;;;;;5034903;28;20724;-85
2021/07/14 01:19:49;;;;;;;0.30;0.30;;;18.50;99.90;;;;;;5052839;28;20564;-86
2021/07/14 01:22:52;;;;;;;0.23;0.20;;;18.30;99.90;;;;;;4986443;28;20197;-86
2021/07/14 01:25:32;;;;;;;0.20;0.20;;;18.30;99.90;;;;;;5043343;28;20197;-86
2021/07/14 01:27:59;;;;;;;0.30;0.30;;;18.40;99.90;;;;;;5047362;28;20174;-86
2021/07/14 01:30:25;;;;;;;0.27;0.23;;;18.50;99.90;;;;;;5051058;28;20669;-86
2021/07/14 01:32:53;;;;;;;0.40;0.40;;;18.30;99.90;;;;;;5032969;28;20193;-85
2021/07/14 01:35:25;;;;;;;0.20;0.20;;;18.20;99.90;;;;;;5034781;28;20209;-86
2021/07/14 01:37:58;;;;;;;5.63;0.50;;;18.30;99.90;;;;;;5044610;28;20272;-86
2021/07/14 01:40:24;;;;;;;0.27;0.27;;;18.30;99.90;;;;;;5035255;28;20213;-85
2021/07/14 01:43:00;;;;;;;0.40;0.40;;;18.50;99.90;;;;;;5035559;28;20181;-87
2021/07/14 01:45:32;;;;;;;3.10;0.50;;;18.50;99.90;;;;;;5035057;28;20216;-85
2021/07/14 01:48:00;;;;;;;0.40;0.40;;;18.40;99.90;;;;;;5035035;28;20276;-86
2021/07/14 01:50:28;;;;;;;0.20;0.20;;;18.40;99.90;;;;;;5052849;28;20186;-85
2021/07/14 01:52:54;;;;;;;0.57;0.27;;;18.40;99.90;;;;;;5035198;28;20193;-86
2021/07/14 01:55:22;;;;;;;0.23;0.23;;;18.40;99.90;;;;;;5034807;28;20209;-86
2021/07/14 01:57:51;;;;;;;0.30;0.30;;;18.50;99.90;;;;;;5052458;28;20192;-86
2021/07/14 02:00:17;;;;;;;0.67;0.60;;;18.50;99.90;;;;;;5052974;28;20201;-86
2021/07/14 02:03:07;;;;;;;0.40;0.40;;;18.50;99.90;;;;;;5052613;28;20703;-86
2021/07/14 02:05:36;;;;;;;0.67;0.20;;;18.50;99.90;;;;;;5046867;28;20204;-86
2021/07/14 02:08:02;;;;;;;0.43;0.30;;;18.50;99.90;;;;;;5034769;28;20197;-85
2021/07/14 02:10:30;;;;;;;0.30;0.30;;;18.50;99.90;;;;;;5052968;28;20209;-85
2021/07/14 02:12:56;;;;;;;0.20;0.20;;;18.50;99.90;;;;;;5034703;28;20277;-86
2021/07/14 02:15:23;;;;;;;0.20;0.20;;;18.60;99.90;;;;;;5043128;28;20226;-86
2021/07/14 02:17:55;;;;;;;0.30;0.30;;;18.60;99.90;;;;;;5016838;28;20217;-86
2021/07/14 02:20:21;;;;;;;1.93;0.20;;;18.60;99.90;;;;;;5021896;28;20233;-87
2021/07/14 02:22:47;;;;;;;0.63;0.20;;;18.50;99.90;;;;;;5028768;28;20187;-85
2021/07/14 02:25:14;;;;;;;0.20;0.20;;;18.60;99.90;;;;;;5042873;28;20671;-87
2021/07/14 02:27:40;;;;;;;0.87;0.43;;;18.60;99.90;;;;;;5034428;28;20185;-86
2021/07/14 02:30:21;;;;;;;1.90;0.67;;;18.70;99.90;;;;;;5034313;28;20328;-86
2021/07/14 02:33:01;;;;;;;0.37;0.37;;;18.50;99.90;;;;;;5051624;28;20276;-85
2021/07/14 02:35:28;;;;;;;0.40;0.30;;;18.50;99.90;;;;;;5033851;28;20218;-86
2021/07/14 02:38:23;;;;;;;0.93;0.83;;;18.50;99.90;;;;;;5034416;28;20262;-86
2021/07/14 02:40:59;;;;;;;0.33;0.33;;;18.50;99.90;;;;;;5033516;28;20209;-85
2021/07/14 02:43:27;;;;;;;0.20;0.20;;;18.50;99.90;;;;;;5034430;28;20280;-86
2021/07/14 02:45:57;;;;;;;0.40;0.40;;;18.50;99.90;;;;;;5048773;28;20197;-85
2021/07/14 02:48:25;;;;;;;0.67;0.30;;;18.50;99.90;;;;;;5051938;28;20260;-87
2021/07/14 02:50:53;;;;;;;0.30;0.30;;;18.50;99.90;;;;;;5022170;28;20684;-85
2021/07/14 02:53:26;;;;;;;0.57;0.57;;;18.50;99.90;;;;;;5051060;28;20188;-86
2021/07/14 02:55:59;;;;;;;0.50;0.50;;;18.50;99.90;;;;;;5026910;28;20301;-85
2021/07/14 02:58:29;;;;;;;0.50;0.30;;;18.50;99.90;;;;;;5034267;28;20189;-86
2021/07/14 03:00:57;;;;;;;0.33;0.20;;;18.40;99.90;;;;;;5035100;28;20357;-86
2021/07/14 03:03:23;;;;;;;0.37;0.37;;;18.40;99.90;;;;;;5034446;28;20182;-86
2021/07/14 03:05:56;;;;;;;0.27;0.27;;;18.40;99.90;;;;;;5034447;28;20221;-85
2021/07/14 03:08:31;;;;;;;0.50;0.40;;;18.40;99.90;;;;;;5034217;28;20184;-85
2021/07/14 03:10:59;;;;;;;0.97;0.60;;;18.40;99.90;;;;;;5024815;28;20258;-84
2021/07/14 03:13:30;;;;;;;0.53;0.53;;;18.40;99.90;;;;;;5031677;28;20192;-84
2021/07/14 03:16:01;;;;;;;3.67;0.63;;;18.30;99.90;;;;;;5032733;28;20223;-84
2021/07/14 03:18:29;;;;;;;0.30;0.30;;;18.30;99.90;;;;;;5029098;28;20252;-84
2021/07/14 03:20:57;;;;;;;0.40;0.40;;;18.20;99.90;;;;;;5040438;28;20248;-84
2021/07/14 03:23:24;;;;;;;0.57;0.30;;;18.20;99.90;;;;;;5033125;28;20224;-85
2021/07/14 03:25:51;;;;;;;0.57;0.33;;;18.10;99.90;;;;;;5031169;28;20257;-84
2021/07/14 03:28:18;;;;;;;0.43;0.43;;;18.20;99.90;;;;;;5049186;28;20186;-85
2021/07/14 03:30:45;;;;;;;0.40;0.40;;;18.10;99.90;;;;;;5050465;28;20251;-84
2021/07/14 03:33:12;;;;;;;0.50;0.50;;;18.00;99.90;;;;;;5049828;28;20196;-83
2021/07/14 03:35:39;;;;;;;0.20;0.20;;;18.00;99.90;;;;;;5032669;28;20213;-84
2021/07/14 03:38:08;;;;;;;0.20;0.20;;;18.10;99.90;;;;;;5024003;28;20209;-84
2021/07/14 03:40:35;;;;;;;0.43;0.43;;;18.10;99.90;;;;;;5047535;28;20201;-84
2021/07/14 03:43:02;;;;;;;0.27;0.27;;;18.10;99.90;;;;;;5051062;28;20712;-85
2021/07/14 03:45:28;;;;;;;0.23;0.23;;;18.10;99.90;;;;;;5032857;28;20300;-84
2021/07/14 03:47:55;;;;;;;0.40;0.40;;;18.00;99.90;;;;;;5027373;28;20284;-84
2021/07/14 03:50:21;;;;;;;0.43;0.43;;;18.10;99.90;;;;;;5047617;28;20192;-84
2021/07/14 03:52:48;;;;;;;0.40;0.40;;;18.00;99.90;;;;;;5024436;28;20182;-83
2021/07/14 03:55:15;;;;;;;0.40;0.40;;;18.00;99.90;;;;;;5054724;28;20201;-84
2021/07/14 03:57:43;;;;;;;0.20;0.20;;;18.00;99.90;;;;;;5036778;28;20186;-84
2021/07/14 04:00:10;;;;;;;1.07;0.60;;;18.00;99.90;;;;;;5031855;28;20554;-84
2021/07/14 04:02:43;;;;;;;0.40;0.40;;;18.10;99.90;;;;;;5053996;28;20204;-84
2021/07/14 04:05:09;;;;;;;0.43;0.43;;;18.10;99.90;;;;;;5032334;28;20242;-84
2021/07/14 04:07:40;;;;;;;0.33;0.33;;;18.10;99.90;;;;;;5029268;28;20223;-84
2021/07/14 04:10:07;;;;;;;0.10;0.10;;;18.10;99.90;;;;;;5051375;28;20193;-84
2021/07/14 04:12:33;;;;;;;0.67;0.60;;;18.10;99.90;;;;;;5036154;28;20196;-84
2021/07/14 04:14:58;;;;;;;0.70;0.70;;;18.20;99.90;;;;;;5027565;28;20224;-84
2021/07/14 04:17:24;;;;;;;0.93;0.57;;;18.30;99.90;;;;;;5053307;28;20730;-84
2021/07/14 04:19:50;;;;;;;0.83;0.83;;;18.20;99.90;;;;;;5034983;28;20216;-84
2021/07/14 04:22:15;;;;;;;0.63;0.63;;;18.20;99.90;;;;;;5046375;28;20181;-84
2021/07/14 04:24:41;;;;;;;0.37;0.37;;;18.10;99.90;;;;;;5053548;28;20558;-84
2021/07/14 04:27:08;;;;;;;0.20;0.20;;;18.10;99.90;;;;;;5048456;28;20193;-84
2021/07/14 04:29:34;;;;;;;0.40;0.40;;;18.10;99.90;;;;;;5026407;28;20228;-84
2021/07/14 04:32:01;;;;;;;0.30;0.30;;;18.20;99.90;;;;;;5049173;28;20199;-84
2021/07/14 04:34:27;;;;;;;0.50;0.47;;;18.20;99.90;;;;;;5033034;28;20190;-84
2021/07/14 04:36:52;;;;;;;0.50;0.50;;;18.20;99.90;;;;;;5047379;28;20208;-84
2021/07/14 04:39:18;;;;;;;0.20;0.20;;;18.30;99.90;;;;;;5035840;28;20217;-84
2021/07/14 04:41:44;;;;;;;0.37;0.37;;;18.30;99.90;;;;;;5031361;28;20236;-85
2021/07/14 04:44:12;;;;;;;1.30;0.50;;;18.30;99.90;;;;;;5053085;28;20178;-84
2021/07/14 04:46:39;;;;;;;0.70;0.20;;;18.30;99.90;;;;;;5040687;28;20198;-84
2021/07/14 04:49:05;;;;;;;0.33;0.30;;;18.30;99.90;;;;;;5041096;28;20268;-84
2021/07/14 04:51:31;;;;;;;0.40;0.40;;;18.30;99.90;;;;;;5048201;28;20209;-84
2021/07/14 04:53:57;;;;;;;0.83;0.30;;;18.30;99.90;;;;;;5053759;28;20204;-84
2021/07/14 04:56:22;;;;;;;0.77;0.33;;;18.40;99.90;;;;;;5034750;28;20205;-85
2021/07/14 04:58:48;;;;;;;0.57;0.57;;;18.40;99.90;;;;;;5032716;28;20179;-85
2021/07/14 05:01:16;;;;;;;0.10;0.10;;;18.40;99.90;;;;;;5040637;28;20271;-85
2021/07/14 05:03:47;;;;;;;0.70;0.40;;;18.40;99.90;;;;;;5040529;28;20176;-84
2021/07/14 05:06:17;;;;;;;0.40;0.40;;;18.40;99.90;;;;;;5035874;28;20249;-85
2021/07/14 05:08:43;;;;;;;1.13;0.37;;;18.40;99.90;;;;;;5052928;28;20185;-86
2021/07/14 05:11:09;;;;;;;0.30;0.30;;;18.50;99.90;;;;;;5053161;28;20190;-85
2021/07/14 05:13:35;;;;;;;0.53;0.53;;;18.50;99.90;;;;;;5035757;28;20193;-85
2021/07/14 05:16:00;;;;;;;0.10;0.10;;;18.60;99.90;;;;;;5034964;28;20227;-85
2021/07/14 05:18:26;;;;;;;0.27;0.27;;;18.70;99.90;;;;;;5034720;28;20196;-86
2021/07/14 05:20:51;;;;;;;0.20;0.20;;;18.60;99.90;;;;;;5035755;28;20300;-85
2021/07/14 05:23:17;;;;;;;0.40;0.33;;;18.70;99.90;;;;;;5034867;28;20210;-86
2021/07/14 05:25:43;;;;;;;0.10;0.10;;;18.70;99.90;;;;;;5030258;28;20233;-85
2021/07/14 05:28:09;;;;;;;0.30;0.30;;;18.70;99.90;;;;;;5034297;28;20173;-85
2021/07/14 05:30:37;;;;;;;0.30;0.30;;;18.80;99.90;;;;;;5033778;28;20235;-85
2021/07/14 05:33:03;;;;;;;0.27;0.27;;;18.80;99.90;;;;;;5034271;28;20197;-84
2021/07/14 05:35:29;;;;;;;0.30;0.30;;;18.80;99.90;;;;;;5047990;28;20206;-84
2021/07/14 05:37:55;;;;;;;0.20;0.20;;;18.80;99.90;;;;;;5032164;28;20273;-85
2021/07/14 05:40:21;;;;;;;0.20;0.20;;;18.90;99.90;;;;;;5047589;28;20201;-86
2021/07/14 05:42:47;;;;;;;0.53;0.53;;;18.80;99.90;;;;;;5052122;28;20228;-85
2021/07/14 05:45:36;;;;;;;0.20;0.20;;;18.80;99.90;;;;;;5037595;28;20201;-85
2021/07/14 05:48:02;;;;;;;0.30;0.30;;;18.70;99.90;;;;;;5027223;28;20223;-85
2021/07/14 05:50:28;;;;;;;1.67;0.40;;;18.70;99.90;;;;;;5052359;28;20197;-84
2021/07/14 05:52:54;;;;;;;0.20;0.20;;;18.70;99.90;;;;;;5034084;28;20182;-85
2021/07/14 05:55:20;;;;;;;0.20;0.20;;;18.70;99.90;;;;;;5034789;28;20203;-84
2021/07/14 05:57:45;;;;;;;0.30;0.30;;;18.70;99.90;;;;;;5033546;28;20210;-85
2021/07/14 06:00:30;;;;;;;0.57;0.43;;;18.70;99.90;;;;;;5052014;28;20254;-85
2021/07/14 06:02:57;;;;;;;0.23;0.23;;;18.70;99.90;;;;;;5049504;28;20184;-85
2021/07/14 06:05:23;;;;;;;1.53;1.07;;;18.60;99.90;;;;;;5033806;28;20201;-85
2021/07/14 06:07:48;;;;;;;0.30;0.30;;;18.70;99.90;;;;;;5051791;28;20191;-85
2021/07/14 06:10:14;;;;;;;0.20;0.20;;;18.70;99.90;;;;;;5034462;28;20196;-85
2021/07/14 06:12:40;;;;;;;1.60;0.97;;;18.70;99.90;;;;;;5034206;28;20338;-85
2021/07/14 06:15:06;;;;;;;1.23;1.23;;;18.60;99.90;;;;;;5048017;28;20638;-85
2021/07/14 06:17:31;;;;;;;0.30;0.30;;;18.60;99.90;;;;;;5051770;28;20188;-85
2021/07/14 06:19:57;;;;;;;0.30;0.30;;;18.50;99.90;;;;;;5034282;28;20202;-85
2021/07/14 06:22:23;;;;;;;0.40;0.40;;;18.50;99.90;;;;;;5031253;28;20213;-85
2021/07/14 06:24:48;;;;;;;0.57;0.40;;;18.40;99.90;;;;;;5033720;28;20231;-85
2021/07/14 06:27:14;;;;;;;0.47;0.47;;;18.40;99.90;;;;;;5051638;28;20549;-84
2021/07/14 06:29:40;;;;;;;0.30;0.30;;;18.40;99.90;;;;;;5033509;28;20256;-84
2021/07/14 06:32:06;;;;;;;0.20;0.20;;;18.40;99.90;;;;;;5051653;28;20199;-84
2021/07/14 06:34:32;;;;;;;0.37;0.30;;;18.40;99.90;;;;;;5034027;28;20181;-85
2021/07/14 06:36:58;;;;;;;0.27;0.27;;;18.50;99.90;;;;;;5033783;28;20232;-86
2021/07/14 06:39:30;;;;;;;0.93;0.70;;;18.40;99.90;;;;;;5033591;28;20290;-85
2021/07/14 06:41:56;;;;;;;0.57;0.50;;;18.30;99.90;;;;;;5051793;28;20223;-85
2021/07/14 06:44:22;;;;;;;0.40;0.40;;;18.40;99.90;;;;;;5046699;28;20189;-85
2021/07/14 06:46:48;;;;;;;0.20;0.20;;;18.30;99.90;;;;;;5032862;28;20216;-86
2021/07/14 06:49:14;;;;;;;0.20;0.20;;;18.40;99.90;;;;;;5031964;28;20674;-85
2021/07/14 06:51:39;;;;;;;0.50;0.50;;;18.40;99.90;;;;;;5033503;28;20185;-86
2021/07/14 06:54:05;;;;;;;0.20;0.20;;;18.50;99.90;;;;;;5031895;28;20196;-85
2021/07/14 06:56:30;;;;;;;0.30;0.30;;;18.50;99.90;;;;;;5026581;28;20254;-84
2021/07/14 06:58:56;;;;;;;0.30;0.30;;;18.70;99.90;;;;;;5051031;28;20192;-85
2021/07/14 07:01:22;;;;;;;0.50;0.50;;;18.70;99.90;;;;;;5044629;28;20184;-85
2021/07/14 07:03:47;;;;;;;0.40;0.40;;;18.70;99.90;;;;;;5051719;28;20193;-85
2021/07/14 07:06:13;;;;;;;0.33;0.33;;;18.70;99.90;;;;;;5034270;28;20282;-85
2021/07/14 07:08:38;;;;;;;0.10;0.10;;;18.80;99.90;;;;;;5033516;28;20552;-85
2021/07/14 07:11:05;;;;;;;0.30;0.30;;;18.80;99.90;;;;;;5052005;28;20189;-85
2021/07/14 07:13:31;;;;;;;0.40;0.40;;;18.90;99.90;;;;;;5051751;28;20185;-85
2021/07/14 07:15:58;;;;;;;0.40;0.40;;;18.90;99.90;;;;;;5051161;28;20230;-85
2021/07/14 07:18:24;;;;;;;0.60;0.37;;;18.90;99.90;;;;;;5033736;28;20212;-86
2021/07/14 07:20:50;;;;;;;0.30;0.30;;;19.00;99.90;;;;;;5034168;28;20864;-85
2021/07/14 07:23:15;;;;;;;0.77;0.30;;;19.00;99.90;;;;;;5034148;28;20239;-85
2021/07/14 07:25:42;;;;;;;0.27;0.27;;;18.90;99.90;;;;;;5051274;28;20578;-85
2021/07/14 07:28:14;;;;;;;0.20;0.20;;;18.90;99.90;;;;;;5032829;28;20184;-86
2021/07/14 07:30:40;;;;;;;0.83;0.40;;;18.90;99.90;;;;;;5056174;28;20662;-85
2021/07/14 07:33:05;;;;;;;0.77;0.70;;;19.00;99.90;;;;;;5055873;28;20276;-85
2021/07/14 07:35:31;;;;;;;0.60;0.60;;;19.00;99.90;;;;;;5038083;28;20624;-85
2021/07/14 07:37:57;;;;;;;0.53;0.30;;;19.00;99.90;;;;;;5037926;28;20194;-85
2021/07/14 07:40:23;;;;;;;0.23;0.23;;;19.10;99.90;;;;;;5036379;28;20843;-85
2021/07/14 07:42:49;;;;;;;0.53;0.53;;;19.10;99.90;;;;;;5037366;28;20594;-85
2021/07/14 07:45:15;;;;;;;0.37;0.37;;;19.10;99.90;;;;;;5037368;28;20684;-85
2021/07/14 07:47:40;;;;;;;1.83;0.60;;;19.00;99.90;;;;;;5033979;28;20182;-85
2021/07/14 07:50:08;;;;;;;0.30;0.30;;;19.00;99.90;;;;;;5049202;28;20216;-85
2021/07/14 07:52:34;;;;;;;0.40;0.40;;;19.00;99.90;;;;;;5050231;28;20196;-85
2021/07/14 07:55:00;;;;;;;0.30;0.30;;;19.00;99.90;;;;;;5048832;28;20201;-85
2021/07/14 07:57:28;;;;;;;0.30;0.30;;;19.00;99.90;;;;;;5046313;28;20184;-86
2021/07/14 07:59:54;;;;;;;0.70;0.40;;;19.10;99.90;;;;;;5037088;28;20214;-85
2021/07/14 08:02:19;;;;;;;0.53;0.53;;;19.20;99.90;;;;;;5055062;28;20185;-85
2021/07/14 08:04:45;;;;;;;0.30;0.30;;;19.20;99.90;;;;;;5036279;28;20189;-85
2021/07/14 08:07:10;;;;;;;0.50;0.50;;;19.30;99.90;;;;;;5054935;28;20189;-85
2021/07/14 08:09:37;;;;;;;0.70;0.67;;;19.40;99.90;;;;;;5028368;28;20178;-85
2021/07/14 08:12:04;;;;;;;0.20;0.20;;;19.60;99.90;;;;;;5036346;28;20272;-85
2021/07/14 08:14:30;;;;;;;0.63;0.57;;;19.50;99.90;;;;;;5036440;28;20606;-85
2021/07/14 08:16:55;;;;;;;0.33;0.33;;;19.50;99.90;;;;;;5035584;28;20213;-84
2021/07/14 08:19:21;;;;;;;0.13;0.13;;;19.40;99.90;;;;;;5050971;28;20205;-84
2021/07/14 08:21:47;;;;;;;0.60;0.60;;;19.40;99.90;;;;;;5054164;28;20228;-85
2021/07/14 08:24:13;;;;;;;0.37;0.37;;;19.40;99.90;;;;;;5035294;28;20195;-85
2021/07/14 08:26:39;;;;;;;0.40;0.40;;;19.40;99.90;;;;;;5049180;28;20204;-86
2021/07/14 08:29:05;;;;;;;0.40;0.40;;;19.30;99.90;;;;;;5027928;28;20650;-84
2021/07/14 08:31:31;;;;;;;0.30;0.30;;;19.30;99.90;;;;;;5041172;28;20193;-84
2021/07/14 08:33:57;;;;;;;0.30;0.30;;;19.30;99.90;;;;;;5035018;28;20181;-83
2021/07/14 08:36:25;;;;;;;0.30;0.30;;;19.30;99.90;;;;;;5054061;28;20194;-83
2021/07/14 08:38:50;;;;;;;0.30;0.30;;;19.30;99.90;;;;;;5037180;28;20265;-83
2021/07/14 08:41:19;;;;;;;0.40;0.30;;;19.30;99.90;;;;;;5036947;28;20272;-87
2021/07/14 08:43:46;;;;;;;0.20;0.20;;;19.40;99.90;;;;;;5038079;28;20182;-83
2021/07/14 08:46:11;;;;;;;0.40;0.40;;;19.50;99.90;;;;;;5056144;28;20580;-83
2021/07/14 08:48:39;;;;;;;0.60;0.60;;;19.40;99.90;;;;;;5034931;28;20284;-85
2021/07/14 08:51:05;;;;;;;0.47;0.47;;;19.50;99.90;;;;;;5036035;28;20185;-84
2021/07/14 08:53:33;;;;;;;0.40;0.40;;;19.50;99.90;;;;;;5034458;28;20600;-84
2021/07/14 08:56:01;;;;;;;0.10;0.10;;;19.70;99.90;;;;;;5032978;28;20298;-84
2021/07/14 08:58:28;;;;;;;0.20;0.20;;;19.60;99.90;;;;;;5027622;28;20192;-84
2021/07/14 09:00:56;;;;;;;0.37;0.37;;;19.70;99.90;;;;;;5032825;28;20296;-84
2021/07/14 09:03:22;;;;;;;0.40;0.40;;;19.70;99.90;;;;;;5053993;28;20228;-84
2021/07/14 09:05:48;;;;;;;0.30;0.30;;;19.80;99.90;;;;;;5034424;28;20234;-84
2021/07/14 09:08:14;;;;;;;1.03;0.40;;;19.80;99.90;;;;;;5035329;28;20220;-85
2021/07/14 09:10:42;;;;;;;0.30;0.30;;;19.70;99.90;;;;;;5036323;28;20272;-84
2021/07/14 09:13:11;;;;;;;0.20;0.20;;;19.70;99.90;;;;;;5036046;28;20623;-84
2021/07/14 09:15:47;;;;;;;0.10;0.10;;;19.70;99.90;;;;;;5034640;28;20244;-84
2021/07/14 09:18:15;;;;;;;0.20;0.20;;;19.70;99.90;;;;;;5038158;28;20563;-84
2021/07/14 09:20:42;;;;;;;0.20;0.20;;;19.70;99.90;;;;;;5049817;28;20696;-84
2021/07/14 09:23:10;;;;;;;0.20;0.20;;;19.70;99.90;;;;;;5032152;28;20179;-85
2021/07/14 09:25:56;;;;;;;0.60;0.30;;;19.70;99.90;;;;;;5029322;28;20198;-84
2021/07/14 09:28:38;;;;;;;0.37;0.30;;;19.60;99.90;;;;;;5040426;28;20261;-84
2021/07/14 09:31:10;;;;;;;0.23;0.23;;;19.60;99.90;;;;;;5034822;28;20234;-84
2021/07/14 09:33:44;;;;;;;0.97;0.97;;;19.60;99.90;;;;;;5035195;28;20239;-84
2021/07/14 09:36:10;;;;;;;0.40;0.40;;;19.50;99.90;;;;;;5047255;28;20292;-85
2021/07/14 09:38:39;;;;;;;0.20;0.20;;;19.30;99.90;;;;;;5052830;28;20657;-84
2021/07/14 09:41:08;;;;;;;0.10;0.10;;;19.40;99.90;;;;;;5035057;28;20698;-85
2021/07/14 09:43:45;;;;;;;0.30;0.30;;;19.40;99.90;;;;;;5051506;28;20217;-85
2021/07/14 09:46:16;;;;;;;0.30;0.30;;;19.50;99.90;;;;;;5052904;28;20204;-85
2021/07/14 09:48:47;;;;;;;0.20;0.20;;;19.50;99.90;;;;;;5032378;28;20182;-85
2021/07/14 09:51:20;;;;;;;0.53;0.37;;;19.50;99.90;;;;;;5052510;28;20273;-85
2021/07/14 09:53:49;;;;;;;0.20;0.20;;;19.50;99.90;;;;;;5035193;28;20181;-85
2021/07/14 09:56:17;;;;;;;1.13;0.40;;;19.50;99.90;;;;;;5051231;28;20197;-86
2021/07/14 09:58:44;;;;;;;0.30;0.30;;;19.50;99.90;;;;;;5033462;28;20213;-86
2021/07/14 10:01:17;;;;;;;0.17;0.17;;;19.60;99.90;;;;;;5034545;28;20700;-86
2021/07/14 10:03:51;;;;;;;0.30;0.20;;;19.60;99.90;;;;;;5038462;28;20224;-86
2021/07/14 10:06:18;;;;;;;0.27;0.27;;;19.60;99.90;;;;;;5047297;28;20254;-87
2021/07/14 10:08:46;;;;;;;0.73;0.57;;;19.60;99.90;;;;;;5052176;28;20173;-85
2021/07/14 10:11:15;;;;;;;0.20;0.20;;;19.60;99.90;;;;;;5048112;28;20193;-85
2021/07/14 10:13:52;;;;;;;0.33;0.30;;;19.60;99.90;;;;;;5052062;28;20188;-86
2021/07/14 10:16:51;;;;;;;0.23;0.23;;;19.60;99.90;;;;;;5033221;28;20308;-85
2021/07/14 10:19:17;;;;;;;4.70;0.60;;;19.60;99.90;;;;;;5050084;28;20197;-85
2021/07/14 10:21:47;;;;;;;0.30;0.30;;;19.50;99.90;;;;;;5051327;28;20184;-85
2021/07/14 10:24:15;;;;;;;0.63;0.40;;;19.40;99.90;;;;;;5046571;28;20189;-85
2021/07/14 10:26:44;;;;;;;0.37;0.30;;;19.40;99.90;;;;;;5050865;28;20202;-85
2021/07/14 10:29:10;;;;;;;1.40;1.30;;;19.40;99.90;;;;;;5052667;28;20177;-85
2021/07/14 10:31:37;;;;;;;0.20;0.20;;;19.30;99.90;;;;;;5043603;28;20185;-86
2021/07/14 10:34:14;;;;;;;0.30;0.30;;;19.30;99.90;;;;;;5033986;28;20174;-85
2021/07/14 10:36:42;;;;;;;0.30;0.30;;;19.30;99.90;;;;;;5031126;28;20222;-86
2021/07/14 10:39:13;;;;;;;0.43;0.43;;;19.30;99.90;;;;;;5050936;28;20178;-86
2021/07/14 10:41:40;;;;;;;0.40;0.40;;;19.30;99.90;;;;;;5027166;28;20715;-86
2021/07/14 10:44:07;;;;;;;0.30;0.30;;;19.30;99.90;;;;;;5033895;28;20195;-86
2021/07/14 10:46:34;;;;;;;0.20;0.20;;;19.30;99.90;;;;;;5034032;28;20209;-89
2021/07/14 10:49:02;;;;;;;1.70;0.47;;;19.40;99.90;;;;;;5033556;28;20193;-86
2021/07/14 10:51:31;;;;;;;0.20;0.20;;;19.30;99.90;;;;;;5032543;28;20216;-86
2021/07/14 10:54:00;;;;;;;0.47;0.40;;;19.40;99.90;;;;;;5044852;28;20239;-85
2021/07/14 10:56:28;;;;;;;0.30;0.30;;;19.60;99.90;;;;;;5033073;28;20582;-86
2021/07/14 10:58:54;;;;;;;0.33;0.33;;;19.60;99.90;;;;;;5048459;28;20223;-85
2021/07/14 11:01:45;;;;;;;0.30;0.30;;;19.70;99.90;;;;;;5033558;28;20205;-85
2021/07/14 11:04:34;;;;;;;0.33;0.33;;;19.70;99.90;;;;;;5036315;28;20216;-86
2021/07/14 11:07:06;;;;;;;0.40;0.40;;;19.70;99.90;;;;;;5035932;28;20189;-85
2021/07/14 11:09:43;;;;;;;0.50;0.50;;;19.70;99.90;;;;;;5037475;28;20188;-85
2021/07/14 11:12:28;;;;;;;0.40;0.40;;;19.80;99.90;;;;;;5054092;28;20200;-85
2021/07/14 11:14:58;;;;;;;0.30;0.30;;;19.80;99.90;;;;;;5053538;28;20220;-85
2021/07/14 11:17:35;;;;;;;0.50;0.50;;;19.80;99.90;;;;;;5037061;28;20189;-86
2021/07/14 11:20:18;;;;;;;0.30;0.30;;;19.70;99.90;;;;;;5033440;28;20695;-86
2021/07/14 11:22:47;;;;;;;0.20;0.20;;;19.60;99.90;;;;;;5031885;28;20228;-86
2021/07/14 11:25:27;;;;;;;0.67;0.33;;;19.50;99.90;;;;;;5029905;28;20198;-86
2021/07/14 11:27:55;;;;;;;0.30;0.30;;;19.50;99.90;;;;;;5036757;28;20177;-86
2021/07/14 11:30:26;;;;;;;0.40;0.40;;;19.40;99.90;;;;;;5055186;28;20193;-87
2021/07/14 11:32:54;;;;;;;0.40;0.40;;;19.40;99.90;;;;;;5035968;28;20184;-86
2021/07/14 11:35:23;;;;;;;0.33;0.33;;;19.40;99.90;;;;;;5036452;28;20682;-88
2021/07/14 11:37:51;;;;;;;0.20;0.20;;;19.40;99.90;;;;;;5030583;28;20654;-85
2021/07/14 11:40:20;;;;;;;0.30;0.30;;;19.40;99.90;;;;;;5054349;28;20262;-86
2021/07/14 11:42:50;;;;;;;0.40;0.40;;;19.40;99.90;;;;;;5034214;28;20232;-86
2021/07/14 11:45:16;;;;;;;0.53;0.53;;;19.40;99.90;;;;;;5061369;28;20210;-86
2021/07/14 11:47:42;;;;;;;0.20;0.20;;;19.40;99.90;;;;;;5052993;28;20197;-86
2021/07/14 11:50:10;;;;;;;0.30;0.30;;;19.40;99.90;;;;;;5034423;28;20186;-85
2021/07/14 11:52:47;;;;;;;0.20;0.20;;;19.30;99.90;;;;;;5029059;28;20181;-85
2021/07/14 11:55:22;;;;;;;0.30;0.30;;;19.30;99.90;;;;;;5050265;28;20843;-84
2021/07/14 11:57:48;;;;;;;0.47;0.47;;;19.30;99.90;;;;;;5047275;28;20671;-85
2021/07/14 12:00:14;;;;;;;0.80;0.53;;;19.30;99.90;;;;;;5054454;28;20685;-84
2021/07/14 12:02:40;;;;;;;0.60;0.20;;;19.20;99.90;;;;;;5031156;28;20346;-85
2021/07/14 12:05:09;;;;;;;0.37;0.30;;;19.20;99.90;;;;;;5023821;28;20277;-85
2021/07/14 12:07:40;;;;;;;0.30;0.30;;;19.20;99.90;;;;;;5034120;28;20404;-85
2021/07/14 12:10:17;;;;;;;0.30;0.30;;;19.30;99.90;;;;;;5036541;28;20190;-85
2021/07/14 12:12:46;;;;;;;0.23;0.23;;;19.40;99.90;;;;;;5033904;28;20182;-85
2021/07/14 12:15:12;;;;;;;0.13;0.13;;;19.40;99.90;;;;;;5033214;28;20229;-85
2021/07/14 12:17:37;;;;;;;0.93;0.40;;;19.50;99.90;;;;;;5035973;28;20234;-85
2021/07/14 12:20:03;;;;;;;0.37;0.37;;;19.50;99.90;;;;;;5028144;28;20301;-85
2021/07/14 12:22:34;;;;;;;0.20;0.20;;;19.50;99.90;;;;;;5049371;28;20174;-85
2021/07/14 12:25:10;;;;;;;0.10;0.10;;;19.50;99.90;;;;;;5030861;28;20296;-85
2021/07/14 12:27:46;;;;;;;0.20;0.20;;;19.40;99.90;;;;;;5053350;28;20185;-85
2021/07/14 12:30:23;;;;;;;0.30;0.30;;;19.30;99.90;;;;;;5036790;28;20185;-85
2021/07/14 12:32:53;;;;;;;0.27;0.27;;;19.30;99.90;;;;;;5053061;28;20647;-85
2021/07/14 12:35:27;;;;;;;0.87;0.87;;;19.30;99.90;;;;;;5023524;28;20212;-85
2021/07/14 12:38:14;;;;;;;0.30;0.30;;;19.30;99.90;;;;;;5029272;28;20191;-86
2021/07/14 12:40:45;;;;;;;0.27;0.27;;;19.50;99.90;;;;;;5033546;28;20233;-85
2021/07/14 12:43:21;;;;;;;0.50;0.50;;;19.50;99.90;;;;;;5050429;28;20224;-85
2021/07/14 12:45:49;;;;;;;0.40;0.20;;;19.70;99.90;;;;;;5035560;28;20205;-85
2021/07/14 12:48:28;;;;;;;0.10;0.10;;;19.80;99.90;;;;;;5033325;28;20240;-85
2021/07/14 12:50:55;;;;;;;0.20;0.20;;;19.70;99.90;;;;;;5036062;28;20276;-85
2021/07/14 12:53:21;;;;;;;0.40;0.30;;;19.70;99.90;;;;;;5041432;28;20205;-85
2021/07/14 12:55:49;;;;;;;0.30;0.30;;;19.70;99.90;;;;;;5033261;28;20201;-85
2021/07/14 12:58:17;;;;;;;0.20;0.20;;;19.80;99.90;;;;;;5030329;28;20182;-85
2021/07/14 13:00:44;;;;;;;0.30;0.30;;;19.80;99.90;;;;;;5028288;28;20209;-85
2021/07/14 13:03:21;;;;;;;0.53;0.30;;;19.80;99.90;;;;;;5051376;28;20288;-85
2021/07/14 13:05:48;;;;;;;0.30;0.30;;;19.90;99.90;;;;;;5053468;28;20631;-85